Time;durP1;ratioP1;P1;durP2;ratioP2;P2;SDS_P1;SDS_P2;PMS_P1;PMS_P2;Temp;Humidity;BMP_temperature;BMP_pressure;BME280_temperature;BME280_humidity;BME280_pressure;Samples;Min_cycle;Max_cycle;Signal;HPM_P1;HPM_P2
2022/03/09 00:01:44;;;;;;;5.05;3.33;;;;;;;;;;5045940;28;20032;-63
2022/03/09 00:04:09;;;;;;;4.10;2.53;;;;;;;;;;5045796;28;20040;-63
2022/03/09 00:06:35;;;;;;;7.18;2.80;;;;;;;;;;5046546;28;20314;-63
2022/03/09 00:09:00;;;;;;;4.65;2.70;;;;;;;;;;5049688;28;20055;-63
2022/03/09 00:11:25;;;;;;;5.60;3.22;;;;;;;;;;5048275;28;20025;-62
2022/03/09 00:13:51;;;;;;;6.47;3.03;;;;;;;;;;5058789;28;20057;-61
2022/03/09 00:16:16;;;;;;;5.88;3.25;;;;;;;;;;5054520;28;20021;-62
2022/03/09 00:18:42;;;;;;;4.28;3.10;;;;;;;;;;5045654;28;20075;-61
2022/03/09 00:21:08;;;;;;;5.20;3.17;;;;;;;;;;5054794;28;20056;-61
2022/03/09 00:23:33;;;;;;;5.25;3.08;;;;;;;;;;5052948;28;20091;-60
2022/03/09 00:25:58;;;;;;;5.32;3.05;;;;;;;;;;5044597;28;20069;-62
2022/03/09 00:28:24;;;;;;;4.85;2.80;;;;;;;;;;5045509;28;20048;-62
2022/03/09 00:30:49;;;;;;;4.00;2.90;;;;;;;;;;5044436;28;20010;-62
2022/03/09 00:33:15;;;;;;;4.95;3.20;;;;;;;;;;5044413;28;20021;-62
2022/03/09 00:35:42;;;;;;;5.47;2.90;;;;;;;;;;5057693;28;20044;-62
2022/03/09 00:38:08;;;;;;;5.82;3.05;;;;;;;;;;5043172;28;20100;-62
2022/03/09 00:40:33;;;;;;;6.03;3.15;;;;;;;;;;5044657;28;20024;-62
2022/03/09 00:42:58;;;;;;;5.03;3.30;;;;;;;;;;5045048;28;20083;-62
2022/03/09 00:45:24;;;;;;;5.55;3.20;;;;;;;;;;5054337;28;20017;-61
2022/03/09 00:47:49;;;;;;;4.45;3.08;;;;;;;;;;5059425;28;20147;-61
2022/03/09 00:50:14;;;;;;;4.25;2.70;;;;;;;;;;5059218;28;20040;-61
2022/03/09 00:52:40;;;;;;;3.83;3.00;;;;;;;;;;5059235;28;20021;-62
2022/03/09 00:55:08;;;;;;;4.55;2.95;;;;;;;;;;5059348;28;20009;-61
2022/03/09 00:57:33;;;;;;;5.30;2.85;;;;;;;;;;5052900;28;20048;-61
2022/03/09 00:59:59;;;;;;;4.47;3.00;;;;;;;;;;5042502;28;20021;-61
2022/03/09 01:02:24;;;;;;;4.35;3.20;;;;;;;;;;5047372;28;20041;-60
2022/03/09 01:04:50;;;;;;;7.07;3.90;;;;;;;;;;5048657;28;20076;-61
2022/03/09 01:07:15;;;;;;;5.13;3.25;;;;;;;;;;5044485;28;20032;-60
2022/03/09 01:09:40;;;;;;;5.18;2.85;;;;;;;;;;5038985;28;20017;-61
2022/03/09 01:12:06;;;;;;;5.18;2.80;;;;;;;;;;5043564;28;20024;-60
2022/03/09 01:14:31;;;;;;;4.78;2.97;;;;;;;;;;5048656;28;20032;-61
2022/03/09 01:16:56;;;;;;;5.15;3.03;;;;;;;;;;5058873;28;20013;-61
2022/03/09 01:19:22;;;;;;;5.63;3.40;;;;;;;;;;5047423;28;20036;-61
2022/03/09 01:21:47;;;;;;;4.15;3.08;;;;;;;;;;5059509;28;20024;-62
2022/03/09 01:24:12;;;;;;;5.25;3.28;;;;;;;;;;5061132;28;20230;-60
2022/03/09 01:26:38;;;;;;;5.93;3.08;;;;;;;;;;5044524;28;20022;-60
2022/03/09 01:29:03;;;;;;;5.45;3.22;;;;;;;;;;5047174;28;20310;-60
2022/03/09 01:31:29;;;;;;;4.40;2.80;;;;;;;;;;5054613;28;20020;-60
2022/03/09 01:33:54;;;;;;;7.65;3.42;;;;;;;;;;5058390;28;20062;-60
2022/03/09 01:36:19;;;;;;;6.18;3.13;;;;;;;;;;5052737;28;20210;-60
2022/03/09 01:38:44;;;;;;;4.95;3.08;;;;;;;;;;5047834;28;20024;-60
2022/03/09 01:41:11;;;;;;;5.78;3.08;;;;;;;;;;5058220;28;20018;-60
2022/03/09 01:43:37;;;;;;;4.80;3.13;;;;;;;;;;5044874;28;20017;-58
2022/03/09 01:46:02;;;;;;;4.40;3.50;;;;;;;;;;5046349;28;20329;-58
2022/03/09 01:48:28;;;;;;;5.60;3.25;;;;;;;;;;5044077;28;20043;-59
2022/03/09 01:50:53;;;;;;;5.93;3.53;;;;;;;;;;5058714;28;20036;-60
2022/03/09 01:53:18;;;;;;;5.93;3.30;;;;;;;;;;5046074;28;20072;-60
2022/03/09 01:55:44;;;;;;;4.35;3.30;;;;;;;;;;5042882;28;20345;-59
2022/03/09 01:58:09;;;;;;;4.75;3.58;;;;;;;;;;5051600;28;20009;-60
2022/03/09 02:00:35;;;;;;;5.47;3.33;;;;;;;;;;5045889;28;20029;-60
2022/03/09 02:03:00;;;;;;;6.78;3.60;;;;;;;;;;5043783;28;20105;-59
2022/03/09 02:05:25;;;;;;;4.90;3.30;;;;;;;;;;5044022;28;20036;-60
2022/03/09 02:10:36;;;;;;;6.90;4.00;;;;;;;;;;5040765;28;20025;-61
2022/03/09 02:13:01;;;;;;;5.32;3.28;;;;;;;;;;5042924;28;20088;-61
2022/03/09 02:15:27;;;;;;;6.13;3.15;;;;;;;;;;5048369;28;20103;-63
2022/03/09 02:17:52;;;;;;;4.50;3.10;;;;;;;;;;5042798;28;20039;-61
2022/03/09 02:20:17;;;;;;;7.40;3.20;;;;;;;;;;5048889;28;20021;-61
2022/03/09 02:22:43;;;;;;;6.47;3.50;;;;;;;;;;5053536;28;20330;-61
2022/03/09 02:25:10;;;;;;;7.45;3.72;;;;;;;;;;5058017;28;20044;-61
2022/03/09 02:27:36;;;;;;;7.40;4.25;;;;;;;;;;5054823;28;20029;-61
2022/03/09 02:30:01;;;;;;;7.55;3.78;;;;;;;;;;5053261;28;20013;-61
2022/03/09 02:32:27;;;;;;;6.68;3.60;;;;;;;;;;5044621;28;20040;-61
2022/03/09 02:34:52;;;;;;;6.45;3.70;;;;;;;;;;5056915;28;20233;-61
2022/03/09 02:37:17;;;;;;;5.38;3.55;;;;;;;;;;5060290;28;20376;-60
2022/03/09 02:39:43;;;;;;;4.40;3.08;;;;;;;;;;5059141;28;20071;-60
2022/03/09 02:42:09;;;;;;;5.03;3.47;;;;;;;;;;5045283;28;20230;-60
2022/03/09 02:44:34;;;;;;;8.52;3.42;;;;;;;;;;5052842;28;20064;-60
2022/03/09 02:46:59;;;;;;;6.95;3.58;;;;;;;;;;5052905;28;20031;-59
2022/03/09 02:49:25;;;;;;;7.30;3.65;;;;;;;;;;5050008;28;20029;-61
2022/03/09 02:51:50;;;;;;;6.28;3.70;;;;;;;;;;5048445;28;20021;-60
2022/03/09 02:54:16;;;;;;;5.85;3.65;;;;;;;;;;5046336;28;20063;-60
2022/03/09 02:56:41;;;;;;;5.80;3.20;;;;;;;;;;5057225;28;20104;-60
2022/03/09 02:59:06;;;;;;;5.82;3.67;;;;;;;;;;5042299;28;20014;-61
2022/03/09 03:01:32;;;;;;;4.90;3.50;;;;;;;;;;5041255;28;20120;-60
2022/03/09 03:03:57;;;;;;;10.05;3.80;;;;;;;;;;5059651;28;20049;-60
2022/03/09 03:06:23;;;;;;;4.53;3.10;;;;;;;;;;5057567;28;20033;-60
2022/03/09 03:08:49;;;;;;;7.93;3.50;;;;;;;;;;5044856;28;20246;-61
2022/03/09 03:11:14;;;;;;;4.35;2.95;;;;;;;;;;5043073;28;20027;-60
2022/03/09 03:13:40;;;;;;;4.82;3.00;;;;;;;;;;5049922;28;20024;-60
2022/03/09 03:16:07;;;;;;;7.15;4.05;;;;;;;;;;5051946;28;20135;-61
2022/03/09 03:18:33;;;;;;;5.57;3.55;;;;;;;;;;5045690;28;20017;-62
2022/03/09 03:20:58;;;;;;;6.70;3.78;;;;;;;;;;5043250;28;20020;-61
2022/03/09 03:23:24;;;;;;;7.38;3.67;;;;;;;;;;5058053;28;20028;-61
2022/03/09 03:25:50;;;;;;;5.50;3.38;;;;;;;;;;5057274;28;20072;-61
2022/03/09 03:28:16;;;;;;;8.35;3.88;;;;;;;;;;5062728;28;20334;-62
2022/03/09 03:30:41;;;;;;;6.70;4.03;;;;;;;;;;5058050;28;20021;-61
2022/03/09 03:33:06;;;;;;;8.68;4.22;;;;;;;;;;5046244;28;20021;-62
2022/03/09 03:35:32;;;;;;;8.38;3.67;;;;;;;;;;5055521;28;20059;-61
2022/03/09 03:37:57;;;;;;;7.65;3.90;;;;;;;;;;5053869;28;20021;-62
2022/03/09 03:40:22;;;;;;;6.70;3.75;;;;;;;;;;5054431;28;20112;-60
2022/03/09 03:42:47;;;;;;;6.38;4.00;;;;;;;;;;5046362;28;20053;-60
2022/03/09 03:45:13;;;;;;;5.63;4.10;;;;;;;;;;5045105;28;20314;-61
2022/03/09 03:47:38;;;;;;;8.10;3.83;;;;;;;;;;5061896;28;20280;-61
2022/03/09 03:50:04;;;;;;;6.78;4.05;;;;;;;;;;5062971;28;20218;-61
2022/03/09 03:52:29;;;;;;;7.78;4.20;;;;;;;;;;5055177;28;20072;-61
2022/03/09 03:54:55;;;;;;;8.38;4.00;;;;;;;;;;5059363;28;20012;-60
2022/03/09 03:57:20;;;;;;;8.60;5.28;;;;;;;;;;5056285;28;20112;-61
2022/03/09 03:59:45;;;;;;;7.03;3.97;;;;;;;;;;5053962;28;20313;-61
2022/03/09 04:02:11;;;;;;;6.13;3.97;;;;;;;;;;5059925;28;20373;-60
2022/03/09 04:04:36;;;;;;;6.55;3.95;;;;;;;;;;5056295;28;20032;-59
2022/03/09 04:07:01;;;;;;;5.45;3.83;;;;;;;;;;5045876;28;20314;-60
2022/03/09 04:09:27;;;;;;;6.53;3.90;;;;;;;;;;5040147;28;20024;-60
2022/03/09 04:11:52;;;;;;;6.63;4.30;;;;;;;;;;5045142;28;20101;-60
2022/03/09 04:14:19;;;;;;;6.93;4.03;;;;;;;;;;5045676;28;20081;-59
2022/03/09 04:16:47;;;;;;;9.88;5.07;;;;;;;;;;5044586;28;20030;-60
2022/03/09 04:19:12;;;;;;;7.18;4.10;;;;;;;;;;5054594;28;20052;-59
2022/03/09 04:21:38;;;;;;;5.97;3.85;;;;;;;;;;5045651;28;20049;-60
2022/03/09 04:24:05;;;;;;;8.43;4.05;;;;;;;;;;5045442;28;20044;-60
2022/03/09 04:26:30;;;;;;;5.88;3.90;;;;;;;;;;5044224;28;20029;-60
2022/03/09 04:28:56;;;;;;;7.40;4.47;;;;;;;;;;5049466;28;20063;-60
2022/03/09 04:31:21;;;;;;;8.13;5.80;;;;;;;;;;5056833;28;20086;-60
2022/03/09 04:33:46;;;;;;;10.02;4.70;;;;;;;;;;5043337;28;20064;-61
2022/03/09 04:36:12;;;;;;;8.25;4.30;;;;;;;;;;5049026;28;20022;-61
2022/03/09 04:38:37;;;;;;;9.07;4.28;;;;;;;;;;5050893;28;20101;-61
2022/03/09 04:41:02;;;;;;;7.30;3.85;;;;;;;;;;5044849;28;20087;-61
2022/03/09 04:43:28;;;;;;;7.88;4.32;;;;;;;;;;5044557;28;20021;-62
2022/03/09 04:45:53;;;;;;;7.65;4.10;;;;;;;;;;5044377;28;20052;-61
2022/03/09 04:48:19;;;;;;;7.50;4.47;;;;;;;;;;5052629;28;20033;-60
2022/03/09 04:50:44;;;;;;;8.95;4.10;;;;;;;;;;5058409;28;20131;-61
2022/03/09 04:53:10;;;;;;;8.00;4.63;;;;;;;;;;5057066;28;20083;-60
2022/03/09 04:55:35;;;;;;;6.25;4.22;;;;;;;;;;5057081;28;20040;-60
2022/03/09 04:58:00;;;;;;;8.93;4.10;;;;;;;;;;5043059;28;20214;-61
2022/03/09 05:00:25;;;;;;;12.05;5.38;;;;;;;;;;5043268;28;20094;-61
2022/03/09 05:02:51;;;;;;;8.07;4.03;;;;;;;;;;5043672;28;20037;-60
2022/03/09 05:05:17;;;;;;;6.50;3.85;;;;;;;;;;5057091;28;20035;-60
2022/03/09 05:07:42;;;;;;;7.45;4.18;;;;;;;;;;5046284;28;20013;-60
2022/03/09 05:10:10;;;;;;;6.68;4.13;;;;;;;;;;5042236;28;20021;-57
2022/03/09 05:12:37;;;;;;;8.27;4.50;;;;;;;;;;5042495;28;20053;-60
2022/03/09 05:15:03;;;;;;;10.20;4.60;;;;;;;;;;5041467;28;20029;-61
2022/03/09 05:17:28;;;;;;;7.85;4.63;;;;;;;;;;5042456;28;20013;-62
2022/03/09 05:19:54;;;;;;;9.60;4.35;;;;;;;;;;5043606;28;20029;-62
2022/03/09 05:22:19;;;;;;;9.50;4.40;;;;;;;;;;5042225;28;20037;-62
2022/03/09 05:24:44;;;;;;;6.90;4.38;;;;;;;;;;5042726;28;20100;-63
2022/03/09 05:27:10;;;;;;;13.82;4.68;;;;;;;;;;5050360;28;20060;-61
2022/03/09 05:29:35;;;;;;;9.30;4.18;;;;;;;;;;5043219;28;20055;-62
2022/03/09 05:32:01;;;;;;;5.93;4.15;;;;;;;;;;5055853;28;20024;-61
2022/03/09 05:34:26;;;;;;;10.18;5.70;;;;;;;;;;5057676;28;20269;-62
2022/03/09 05:36:51;;;;;;;8.20;4.63;;;;;;;;;;5057656;28;20230;-62
2022/03/09 05:39:17;;;;;;;7.13;4.22;;;;;;;;;;5047750;28;20085;-61
2022/03/09 05:41:42;;;;;;;7.32;3.95;;;;;;;;;;5046574;28;20020;-61
2022/03/09 05:44:07;;;;;;;6.57;4.00;;;;;;;;;;5057149;28;20025;-62
2022/03/09 05:46:33;;;;;;;8.07;4.05;;;;;;;;;;5058207;28;20017;-61
2022/03/09 05:48:58;;;;;;;7.20;4.03;;;;;;;;;;5041042;28;20025;-61
2022/03/09 05:51:24;;;;;;;7.47;4.57;;;;;;;;;;5060017;28;20044;-61
2022/03/09 05:53:49;;;;;;;8.93;5.30;;;;;;;;;;5043467;28;20093;-60
2022/03/09 05:56:15;;;;;;;7.65;4.18;;;;;;;;;;5054472;28;20033;-62
2022/03/09 05:58:40;;;;;;;8.43;4.28;;;;;;;;;;5052117;28;20071;-62
2022/03/09 06:01:05;;;;;;;7.43;4.63;;;;;;;;;;5049838;28;20016;-62
2022/03/09 06:03:31;;;;;;;9.70;4.85;;;;;;;;;;5049831;28;20155;-62
2022/03/09 06:05:56;;;;;;;10.15;5.00;;;;;;;;;;5042925;28;20095;-62
2022/03/09 06:08:21;;;;;;;9.43;4.75;;;;;;;;;;5038989;28;20072;-62
2022/03/09 06:10:46;;;;;;;10.00;5.15;;;;;;;;;;5041330;28;20009;-62
2022/03/09 06:13:12;;;;;;;15.63;5.00;;;;;;;;;;5058343;28;20044;-61
2022/03/09 06:15:37;;;;;;;6.88;4.63;;;;;;;;;;5040784;28;20049;-62
2022/03/09 06:18:03;;;;;;;7.80;4.28;;;;;;;;;;5040901;28;20029;-62
2022/03/09 06:20:28;;;;;;;7.82;4.53;;;;;;;;;;5052302;28;20227;-61
2022/03/09 06:22:54;;;;;;;9.85;3.95;;;;;;;;;;5056895;28;20040;-62
2022/03/09 06:25:20;;;;;;;8.63;3.83;;;;;;;;;;5057127;28;20364;-61
2022/03/09 06:27:46;;;;;;;6.10;3.85;;;;;;;;;;5047996;28;20029;-61
2022/03/09 06:30:12;;;;;;;5.97;4.25;;;;;;;;;;5042943;28;20009;-61
2022/03/09 06:32:38;;;;;;;9.65;5.13;;;;;;;;;;5041812;28;20144;-61
2022/03/09 06:35:04;;;;;;;8.43;4.70;;;;;;;;;;5043252;28;20323;-61
2022/03/09 06:37:30;;;;;;;7.80;4.25;;;;;;;;;;5041030;28;20037;-62
2022/03/09 06:39:58;;;;;;;8.75;4.65;;;;;;;;;;5058760;28;20066;-61
2022/03/09 06:42:24;;;;;;;11.05;4.78;;;;;;;;;;5043653;28;20029;-61
2022/03/09 06:44:49;;;;;;;6.68;4.00;;;;;;;;;;5057286;28;20218;-61
2022/03/09 06:47:15;;;;;;;7.22;4.07;;;;;;;;;;5052085;28;20033;-63
2022/03/09 06:49:40;;;;;;;10.63;4.63;;;;;;;;;;5050303;28;20029;-62
2022/03/09 06:52:06;;;;;;;6.13;4.20;;;;;;;;;;5042800;28;20022;-62
2022/03/09 06:54:31;;;;;;;12.25;5.32;;;;;;;;;;5045258;28;20024;-62
2022/03/09 06:56:56;;;;;;;8.85;3.97;;;;;;;;;;5057099;28;20021;-63
2022/03/09 06:59:22;;;;;;;6.07;4.22;;;;;;;;;;5041470;28;20013;-63
2022/03/09 07:01:47;;;;;;;7.28;4.10;;;;;;;;;;5060547;28;20059;-63
2022/03/09 07:04:12;;;;;;;6.13;3.95;;;;;;;;;;5062038;28;20051;-63
2022/03/09 07:06:38;;;;;;;6.80;4.00;;;;;;;;;;5047679;28;20041;-62
2022/03/09 07:09:03;;;;;;;6.78;3.40;;;;;;;;;;5054202;28;20865;-63
2022/03/09 07:11:28;;;;;;;7.30;4.18;;;;;;;;;;5055084;28;20021;-64
2022/03/09 07:13:54;;;;;;;9.32;3.90;;;;;;;;;;5058432;28;20017;-62
2022/03/09 07:16:19;;;;;;;11.05;4.18;;;;;;;;;;5059514;28;20043;-62
2022/03/09 07:18:44;;;;;;;9.32;3.50;;;;;;;;;;5046419;28;20029;-62
2022/03/09 07:21:10;;;;;;;7.68;3.85;;;;;;;;;;5045526;28;20075;-62
2022/03/09 07:23:35;;;;;;;7.18;3.83;;;;;;;;;;5060136;28;20076;-62
2022/03/09 07:26:00;;;;;;;6.00;3.85;;;;;;;;;;5044867;28;20310;-63
2022/03/09 07:28:25;;;;;;;10.15;4.07;;;;;;;;;;5061240;28;20028;-62
2022/03/09 07:30:51;;;;;;;7.38;3.53;;;;;;;;;;5047401;28;20036;-61
2022/03/09 07:33:16;;;;;;;4.78;3.08;;;;;;;;;;5055252;28;20039;-62
2022/03/09 07:35:42;;;;;;;6.15;4.15;;;;;;;;;;5054034;28;20026;-62
2022/03/09 07:38:10;;;;;;;6.95;3.88;;;;;;;;;;5051512;28;20021;-62
2022/03/09 07:40:35;;;;;;;7.55;4.00;;;;;;;;;;5058952;28;20352;-62
2022/03/09 07:43:00;;;;;;;10.13;4.45;;;;;;;;;;5060141;28;20025;-62
2022/03/09 07:45:25;;;;;;;5.22;3.70;;;;;;;;;;5054797;28;20045;-62
2022/03/09 07:47:51;;;;;;;5.30;3.92;;;;;;;;;;5038476;28;20080;-61
2022/03/09 07:50:16;;;;;;;5.50;3.60;;;;;;;;;;5044643;28;20093;-62
2022/03/09 07:52:42;;;;;;;7.28;3.80;;;;;;;;;;5053202;28;20033;-61
2022/03/09 07:55:07;;;;;;;7.28;3.70;;;;;;;;;;5045676;28;20322;-62
2022/03/09 07:57:33;;;;;;;5.40;3.65;;;;;;;;;;5044899;28;20219;-62
2022/03/09 07:59:58;;;;;;;10.25;2.95;;;;;;;;;;5044404;28;20017;-61
2022/03/09 08:02:23;;;;;;;4.78;2.60;;;;;;;;;;5044743;28;20037;-61
2022/03/09 08:04:49;;;;;;;4.85;3.17;;;;;;;;;;5045018;28;20096;-61
2022/03/09 08:07:14;;;;;;;5.10;3.33;;;;;;;;;;5043944;28;20029;-62
2022/03/09 08:09:39;;;;;;;6.03;2.97;;;;;;;;;;5044156;28;20234;-62
2022/03/09 08:12:05;;;;;;;5.40;3.42;;;;;;;;;;5043774;28;20341;-61
2022/03/09 08:14:30;;;;;;;4.63;3.10;;;;;;;;;;5046808;28;20029;-61
2022/03/09 08:16:55;;;;;;;5.28;3.70;;;;;;;;;;5045082;28;20053;-61
2022/03/09 08:19:21;;;;;;;4.78;2.88;;;;;;;;;;5045445;28;20013;-60
2022/03/09 08:21:46;;;;;;;5.90;2.80;;;;;;;;;;5044662;28;20030;-60
2022/03/09 08:24:11;;;;;;;4.03;2.80;;;;;;;;;;5044774;28;20052;-61
2022/03/09 08:26:37;;;;;;;5.40;2.75;;;;;;;;;;5044107;28;20097;-61
2022/03/09 08:29:02;;;;;;;3.35;2.42;;;;;;;;;;5043656;28;20013;-61
2022/03/09 08:31:28;;;;;;;6.60;2.60;;;;;;;;;;5044856;28;20029;-62
2022/03/09 08:33:55;;;;;;;4.78;2.60;;;;;;;;;;5043594;28;20114;-61
2022/03/09 08:36:20;;;;;;;7.05;2.63;;;;;;;;;;5045834;28;20020;-62
2022/03/09 08:38:46;;;;;;;8.43;2.97;;;;;;;;;;5058001;28;20021;-61
2022/03/09 08:41:11;;;;;;;4.63;2.38;;;;;;;;;;5043970;28;20084;-61
2022/03/09 08:43:36;;;;;;;5.20;3.03;;;;;;;;;;5045156;28;20147;-60
2022/03/09 08:46:02;;;;;;;5.50;3.25;;;;;;;;;;5053804;28;20033;-61
2022/03/09 08:48:27;;;;;;;4.05;2.60;;;;;;;;;;5059040;28;20333;-60
2022/03/09 08:50:53;;;;;;;5.05;3.10;;;;;;;;;;5053053;28;20025;-60
2022/03/09 08:53:19;;;;;;;7.03;3.47;;;;;;;;;;5043325;28;20025;-60
2022/03/09 08:55:44;;;;;;;4.95;2.97;;;;;;;;;;5042937;28;20025;-61
2022/03/09 08:58:10;;;;;;;10.48;3.20;;;;;;;;;;5043104;28;20048;-60
2022/03/09 09:00:35;;;;;;;4.95;3.00;;;;;;;;;;5045848;28;20017;-60
2022/03/09 09:03:00;;;;;;;5.10;2.92;;;;;;;;;;5044928;28;20226;-61
2022/03/09 09:05:26;;;;;;;7.90;3.35;;;;;;;;;;5044327;28;20072;-61
2022/03/09 09:07:51;;;;;;;5.60;3.05;;;;;;;;;;5044012;28;20059;-61
2022/03/09 09:10:16;;;;;;;6.05;3.13;;;;;;;;;;5043512;28;20034;-61
2022/03/09 09:12:42;;;;;;;6.55;2.80;;;;;;;;;;5044211;28;20025;-61
2022/03/09 09:15:08;;;;;;;4.80;2.90;;;;;;;;;;5044017;28;20055;-61
2022/03/09 09:17:34;;;;;;;5.90;3.17;;;;;;;;;;5041055;28;20025;-61
2022/03/09 09:19:59;;;;;;;3.72;2.17;;;;;;;;;;5042478;28;20031;-61
2022/03/09 09:22:24;;;;;;;4.32;2.60;;;;;;;;;;5042518;28;20025;-60
2022/03/09 09:24:50;;;;;;;3.88;2.63;;;;;;;;;;5042532;28;20303;-62
2022/03/09 09:27:16;;;;;;;7.57;3.30;;;;;;;;;;5042651;28;20365;-61
2022/03/09 09:29:41;;;;;;;5.32;2.42;;;;;;;;;;5044784;28;20021;-61
2022/03/09 09:32:06;;;;;;;4.75;2.50;;;;;;;;;;5044469;28;20059;-61
2022/03/09 09:34:32;;;;;;;3.13;2.10;;;;;;;;;;5042139;28;20021;-62
2022/03/09 09:36:59;;;;;;;3.38;2.65;;;;;;;;;;5043100;28;20037;-61
2022/03/09 09:39:24;;;;;;;4.43;2.60;;;;;;;;;;5042119;28;20287;-59
2022/03/09 09:41:54;;;;;;;3.58;2.33;;;;;;;;;;5042795;28;20013;-59
2022/03/09 09:44:20;;;;;;;4.80;1.92;;;;;;;;;;5042750;28;20021;-61
2022/03/09 09:46:45;;;;;;;5.25;2.35;;;;;;;;;;5042502;28;20056;-60
2022/03/09 09:49:12;;;;;;;3.92;2.20;;;;;;;;;;5057849;28;20033;-60
2022/03/09 09:51:39;;;;;;;9.10;2.78;;;;;;;;;;5042297;28;20038;-60
2022/03/09 09:54:07;;;;;;;3.33;2.42;;;;;;;;;;5056856;28;20372;-61
2022/03/09 09:56:37;;;;;;;5.30;2.20;;;;;;;;;;5057559;28;20021;-61
2022/03/09 09:59:02;;;;;;;5.82;2.67;;;;;;;;;;5047664;28;20054;-60
2022/03/09 10:01:28;;;;;;;4.22;3.03;;;;;;;;;;5042976;28;20242;-61
2022/03/09 10:03:54;;;;;;;3.67;2.17;;;;;;;;;;5048509;28;20257;-61
2022/03/09 10:06:19;;;;;;;4.25;2.80;;;;;;;;;;5057682;28;20108;-60
2022/03/09 10:09:00;;;;;;;4.28;2.58;;;;;;;;;;5051348;28;20014;-60
2022/03/09 10:11:42;;;;;;;3.92;2.55;;;;;;;;;;5056248;28;20045;-61
2022/03/09 10:14:08;;;;;;;5.00;2.97;;;;;;;;;;5045865;28;20033;-59
2022/03/09 10:16:33;;;;;;;5.93;2.65;;;;;;;;;;5057939;28;20314;-59
2022/03/09 10:19:00;;;;;;;3.92;2.50;;;;;;;;;;5060017;28;20025;-60
2022/03/09 10:21:28;;;;;;;6.50;2.90;;;;;;;;;;5041965;28;20299;-60
2022/03/09 10:23:53;;;;;;;7.30;3.15;;;;;;;;;;5073608;28;20038;-60
2022/03/09 10:26:19;;;;;;;3.92;2.70;;;;;;;;;;5041934;28;20048;-60
2022/03/09 10:28:54;;;;;;;4.35;2.40;;;;;;;;;;5043779;28;20025;-60
2022/03/09 10:31:32;;;;;;;6.65;2.55;;;;;;;;;;5043025;28;20033;-60
2022/03/09 10:34:08;;;;;;;5.78;2.20;;;;;;;;;;5041126;28;20028;-60
2022/03/09 10:36:34;;;;;;;4.78;2.80;;;;;;;;;;5044081;28;20027;-60
2022/03/09 10:39:09;;;;;;;4.22;2.67;;;;;;;;;;5047013;28;20025;-61
2022/03/09 10:41:34;;;;;;;11.05;2.88;;;;;;;;;;5044583;28;20028;-61
2022/03/09 10:44:00;;;;;;;3.95;2.20;;;;;;;;;;5046669;28;20033;-61
2022/03/09 10:46:25;;;;;;;5.00;2.63;;;;;;;;;;5046168;28;20080;-60
2022/03/09 10:49:03;;;;;;;4.57;2.40;;;;;;;;;;5046642;28;20029;-61
2022/03/09 10:51:30;;;;;;;5.07;2.53;;;;;;;;;;5044039;28;20025;-61
2022/03/09 10:53:55;;;;;;;3.67;2.08;;;;;;;;;;5046457;28;20017;-61
2022/03/09 10:56:21;;;;;;;6.78;2.28;;;;;;;;;;5044850;28;20060;-60
2022/03/09 10:58:46;;;;;;;4.47;2.67;;;;;;;;;;5045670;28;20085;-61
2022/03/09 11:01:15;;;;;;;5.07;2.50;;;;;;;;;;5046393;28;20027;-61
2022/03/09 11:03:43;;;;;;;8.32;2.70;;;;;;;;;;5046346;28;20099;-61
2022/03/09 11:06:09;;;;;;;4.18;2.60;;;;;;;;;;5046524;28;20104;-61
2022/03/09 11:08:35;;;;;;;4.53;2.70;;;;;;;;;;5045826;28;20036;-60
2022/03/09 11:11:02;;;;;;;3.70;2.08;;;;;;;;;;5045410;28;20344;-61
2022/03/09 11:13:29;;;;;;;3.40;2.40;;;;;;;;;;5032310;28;20027;-60
2022/03/09 11:15:54;;;;;;;3.95;2.20;;;;;;;;;;5053371;28;20096;-61
2022/03/09 11:18:21;;;;;;;3.08;2.28;;;;;;;;;;5044665;28;20036;-61
2022/03/09 11:20:52;;;;;;;3.85;2.42;;;;;;;;;;5062302;28;20044;-60
2022/03/09 11:23:18;;;;;;;5.03;2.40;;;;;;;;;;5045046;28;20037;-60
2022/03/09 11:25:48;;;;;;;4.07;2.47;;;;;;;;;;5043335;28;20071;-60
2022/03/09 11:28:20;;;;;;;3.95;2.20;;;;;;;;;;5045530;28;20345;-59
2022/03/09 11:30:58;;;;;;;3.10;2.13;;;;;;;;;;5054647;28;20108;-61
2022/03/09 11:33:39;;;;;;;3.97;2.17;;;;;;;;;;5060026;28;20082;-60
2022/03/09 11:36:27;;;;;;;3.05;2.08;;;;;;;;;;5059823;28;20043;-61
2022/03/09 11:39:17;;;;;;;4.88;2.60;;;;;;;;;;5059951;28;20024;-60
2022/03/09 11:41:42;;;;;;;6.68;3.50;;;;;;;;;;5060093;28;20096;-60
2022/03/09 11:44:20;;;;;;;7.13;2.97;;;;;;;;;;5060163;28;20179;-61
2022/03/09 11:47:00;;;;;;;4.50;2.28;;;;;;;;;;5059499;28;20013;-60
2022/03/09 11:49:49;;;;;;;4.68;2.65;;;;;;;;;;5052788;28;20025;-60
2022/03/09 11:52:15;;;;;;;4.20;2.42;;;;;;;;;;5047382;28;20025;-60
2022/03/09 11:54:44;;;;;;;6.72;2.53;;;;;;;;;;5047956;28;20021;-61
2022/03/09 11:57:13;;;;;;;6.00;2.40;;;;;;;;;;5048844;28;20028;-59
2022/03/09 11:59:38;;;;;;;3.65;2.33;;;;;;;;;;5057385;28;20017;-60
2022/03/09 12:02:10;;;;;;;3.88;2.50;;;;;;;;;;5045444;28;20336;-60
2022/03/09 12:04:51;;;;;;;2.47;2.00;;;;;;;;;;5060206;28;20327;-59
2022/03/09 12:07:33;;;;;;;4.50;2.40;;;;;;;;;;5044386;28;20041;-59
2022/03/09 12:10:06;;;;;;;4.28;2.30;;;;;;;;;;5035288;28;20434;-61
2022/03/09 12:12:33;;;;;;;5.55;2.80;;;;;;;;;;5043049;28;20014;-62
2022/03/09 12:15:00;;;;;;;2.63;2.30;;;;;;;;;;5051594;28;20017;-60
2022/03/09 12:17:29;;;;;;;4.15;2.63;;;;;;;;;;5044322;28;20044;-61
2022/03/09 12:20:20;;;;;;;4.05;2.50;;;;;;;;;;5058981;28;20100;-62
2022/03/09 12:22:55;;;;;;;6.00;2.20;;;;;;;;;;5057634;28;20155;-62
2022/03/09 12:25:40;;;;;;;4.30;2.33;;;;;;;;;;5045482;28;20092;-62
2022/03/09 12:28:23;;;;;;;5.80;2.30;;;;;;;;;;5059528;28;20054;-61
2022/03/09 12:30:52;;;;;;;6.35;1.95;;;;;;;;;;5035886;28;20024;-61
2022/03/09 12:33:37;;;;;;;6.25;3.25;;;;;;;;;;5043405;28;20259;-61
2022/03/09 12:36:04;;;;;;;4.25;2.58;;;;;;;;;;5042776;28;20101;-60
2022/03/09 12:38:41;;;;;;;4.35;2.15;;;;;;;;;;5043486;28;20029;-63
2022/03/09 12:41:25;;;;;;;3.53;2.17;;;;;;;;;;5055671;28;20234;-60
2022/03/09 12:43:52;;;;;;;6.30;2.83;;;;;;;;;;5047466;28;20326;-63
2022/03/09 12:46:17;;;;;;;5.05;2.60;;;;;;;;;;5045320;28;20210;-64
2022/03/09 12:48:43;;;;;;;3.92;2.13;;;;;;;;;;5051388;28;20040;-61
2022/03/09 12:51:09;;;;;;;4.60;2.63;;;;;;;;;;5055376;28;20333;-61
2022/03/09 12:53:34;;;;;;;3.50;2.15;;;;;;;;;;5045305;28;20020;-61
2022/03/09 12:56:32;;;;;;;6.80;2.50;;;;;;;;;;5058663;28;20195;-61
2022/03/09 12:59:11;;;;;;;6.55;2.13;;;;;;;;;;5034580;28;20037;-61
2022/03/09 13:01:36;;;;;;;4.82;2.38;;;;;;;;;;5058100;28;20059;-62
2022/03/09 13:04:03;;;;;;;4.40;2.05;;;;;;;;;;5059199;28;20043;-61
2022/03/09 13:06:29;;;;;;;3.70;2.40;;;;;;;;;;5061323;28;20028;-61
2022/03/09 13:10:51;;;;;;;5.00;2.50;;;;;;;-4.27;35.77;100695.16;5132906;27;20633;-62
2022/03/09 13:13:18;;;;;;;4.47;2.42;;;;;;;-4.10;35.24;100701.13;5136124;27;20023;-62
2022/03/09 13:15:46;;;;;;;5.55;1.88;;;;;;;-4.17;33.97;100708.38;5136443;27;20026;-62
2022/03/09 13:18:14;;;;;;;7.30;2.70;;;;;;;-5.57;33.44;100565.03;5135267;28;20026;-61
2022/03/09 13:20:44;;;;;;;3.72;2.05;;;;;;;-4.53;34.95;100652.50;5134998;28;20023;-62
2022/03/09 13:23:35;;;;;;;3.50;2.28;;;;;;;-4.30;34.16;100720.25;5135162;27;20227;-62
2022/03/09 13:26:42;;;;;;;1.85;1.55;;;;;;;-4.94;33.17;100715.84;5120212;28;20019;-62
2022/03/09 13:29:19;;;;;;;3.80;2.05;;;;;;;-4.87;34.29;100705.31;5116013;28;20444;-63
2022/03/09 13:32:01;;;;;;;4.18;2.50;;;;;;;-4.94;34.06;100706.63;5135871;27;20249;-61
2022/03/09 13:34:34;;;;;;;4.70;2.20;;;;;;;-5.38;34.44;100645.19;5135762;27;20033;-62
2022/03/09 13:37:01;;;;;;;7.03;2.33;;;;;;;-4.78;35.01;100718.47;5128429;27;20364;-62
2022/03/09 13:39:44;;;;;;;5.35;2.15;;;;;;;-4.74;34.54;100724.56;5135588;27;20095;-62
2022/03/09 13:42:21;;;;;;;5.45;2.20;;;;;;;-4.61;34.81;100733.72;5112616;28;20035;-62
2022/03/09 13:45:07;;;;;;;4.57;2.40;;;;;;;-4.37;34.34;100727.50;5119231;28;20043;-62
2022/03/09 13:47:44;;;;;;;4.43;1.98;;;;;;;-5.05;33.41;100662.19;5119117;28;20043;-62
2022/03/09 13:50:20;;;;;;;2.50;1.80;;;;;;;-4.53;35.01;100735.91;5133268;27;20209;-63
2022/03/09 13:52:46;;;;;;;2.58;1.98;;;;;;;-4.86;33.38;100735.72;5133693;27;20028;-62
2022/03/09 13:55:23;;;;;;;5.55;2.35;;;;;;;-4.68;35.58;100724.91;5136973;27;20321;-62
2022/03/09 13:58:02;;;;;;;5.47;2.40;;;;;;;-4.62;34.96;100735.34;5119997;28;20035;-62
2022/03/09 14:00:33;;;;;;;3.95;2.08;;;;;;;-4.73;33.89;100722.13;5119941;28;20050;-61
2022/03/09 14:03:08;;;;;;;5.28;3.03;;;;;;;-4.83;34.07;100714.81;5136719;28;20023;-61
2022/03/09 14:05:35;;;;;;;3.92;2.03;;;;;;;-5.07;34.96;100669.69;5137605;28;20031;-62
2022/03/09 14:08:02;;;;;;;4.78;2.30;;;;;;;-4.57;35.02;100746.63;5126550;28;20220;-61
2022/03/09 14:10:32;;;;;;;4.82;1.95;;;;;;;-4.77;33.73;100739.56;5119498;28;20096;-63
2022/03/09 14:13:13;;;;;;;2.83;1.92;;;;;;;-4.81;33.84;100730.94;5131532;28;20043;-61
2022/03/09 14:15:40;;;;;;;4.60;2.42;;;;;;;-4.93;33.43;100752.94;5122140;27;20024;-62
2022/03/09 14:18:07;;;;;;;4.68;2.05;;;;;;;-4.73;33.92;100757.50;5129294;28;20031;-62
2022/03/09 14:20:33;;;;;;;5.57;2.10;;;;;;;-5.15;34.10;100760.94;5130908;27;20208;-61
2022/03/09 14:22:59;;;;;;;2.50;1.88;;;;;;;-5.22;33.24;100770.63;5103087;28;20305;-62
2022/03/09 14:25:25;;;;;;;4.22;1.80;;;;;;;-5.43;33.60;100764.31;5109688;28;20068;-61
2022/03/09 14:27:53;;;;;;;3.75;1.85;;;;;;;-5.34;35.24;100764.88;5120458;28;20015;-63